createdAt,value
2023-02-19T00:00:35.003Z,99218.22
2023-02-19T00:03:05.539Z,99194.09
2023-02-19T00:05:36.780Z,99206.91
2023-02-19T00:08:06.366Z,99217.41
2023-02-19T00:10:35.970Z,99219.38
2023-02-19T00:13:05.351Z,99213.41
2023-02-19T00:15:35.112Z,99205.19
2023-02-19T00:18:06.114Z,99225.13
2023-02-19T00:20:35.295Z,99211.25
2023-02-19T00:23:04.494Z,99116.66
2023-02-19T00:25:33.612Z,99202.50
2023-02-19T00:28:02.803Z,99200.09
2023-02-19T00:30:31.948Z,99179.03
2023-02-19T00:33:01.213Z,99185.34
2023-02-19T00:35:34.830Z,99206.41
2023-02-19T00:38:05.163Z,99150.94
2023-02-19T00:40:34.346Z,99208.06
2023-02-19T00:43:03.505Z,99204.13
2023-02-19T00:45:34.597Z,99204.16
2023-02-19T00:48:03.694Z,99215.13
2023-02-19T00:50:34.126Z,99205.84
2023-02-19T00:53:03.603Z,99217.72
2023-02-19T00:55:33.003Z,99222.63
2023-02-19T00:58:02.106Z,99239.81
2023-02-19T01:00:31.334Z,99181.78
2023-02-19T01:03:00.511Z,99160.47
2023-02-19T01:05:29.618Z,99243.41
2023-02-19T01:08:00.245Z,99247.63
2023-02-19T01:10:29.333Z,99251.00
2023-02-19T01:12:58.667Z,99252.63
2023-02-19T01:15:27.909Z,99260.69
2023-02-19T01:17:57.087Z,99240.44
2023-02-19T01:20:26.772Z,99227.09
2023-02-19T01:22:55.879Z,99239.91
2023-02-19T01:25:26.516Z,99229.16
2023-02-19T01:27:55.505Z,99241.13
2023-02-19T01:30:25.095Z,99248.75
2023-02-19T01:32:54.220Z,99234.28
2023-02-19T01:35:23.303Z,99251.78
2023-02-19T01:37:52.807Z,99236.97
2023-02-19T01:40:22.268Z,99217.53
2023-02-19T01:42:52.677Z,99254.34
2023-02-19T01:45:28.798Z,99233.41
2023-02-19T01:48:07.398Z,99258.16
2023-02-19T01:50:40.697Z,99252.78
2023-02-19T01:53:13.392Z,99250.25
2023-02-19T01:55:44.127Z,99265.41
2023-02-19T01:58:16.000Z,99255.31
2023-02-19T02:00:45.661Z,99245.25
2023-02-19T02:03:16.313Z,99269.00
2023-02-19T02:05:55.960Z,99267.50
2023-02-19T02:08:43.626Z,99276.63
2023-02-19T02:11:13.620Z,99282.31
2023-02-19T02:13:44.144Z,99189.84
2023-02-19T02:16:23.602Z,99280.13
2023-02-19T02:19:15.436Z,99291.41
2023-02-19T02:21:58.923Z,99276.47
2023-02-19T02:25:14.299Z,99297.03
2023-02-19T02:27:53.099Z,99299.66
2023-02-19T02:30:34.522Z,99296.41
2023-02-19T02:33:13.831Z,99219.09
2023-02-19T02:35:48.816Z,99279.06
2023-02-19T02:38:22.102Z,99301.88
2023-02-19T02:40:52.798Z,99301.44
2023-02-19T02:43:22.247Z,99287.75
2023-02-19T02:45:52.915Z,99313.25
2023-02-19T02:48:36.009Z,99288.69
2023-02-19T02:51:14.119Z,99297.56
2023-02-19T02:54:12.532Z,99308.66
2023-02-19T02:56:44.211Z,99276.00
2023-02-19T02:59:16.675Z,99321.81
2023-02-19T03:02:12.375Z,99305.34
2023-02-19T03:05:09.810Z,99322.69
2023-02-19T03:07:44.446Z,99339.00
2023-02-19T03:10:18.436Z,99325.69
2023-02-19T03:13:07.072Z,99329.25
2023-02-19T03:16:15.866Z,99330.88
2023-02-19T03:19:08.555Z,99316.19
2023-02-19T03:21:39.941Z,99317.50
2023-02-19T03:24:31.318Z,99338.06
2023-02-19T03:27:03.881Z,99337.44
2023-02-19T03:29:41.490Z,99353.94
2023-02-19T03:32:16.033Z,99337.91
2023-02-19T03:34:53.887Z,99346.53
2023-02-19T03:37:29.700Z,99317.00
2023-02-19T03:40:01.433Z,99267.81
2023-02-19T03:42:41.488Z,99358.25
2023-02-19T03:45:26.109Z,99368.38
2023-02-19T03:48:05.251Z,99362.19
2023-02-19T03:50:44.674Z,99131.09
2023-02-19T03:53:19.493Z,99377.00
2023-02-19T03:56:01.496Z,99381.94
2023-02-19T03:58:37.555Z,99364.41
2023-02-19T04:01:11.917Z,99331.84
2023-02-19T04:03:46.861Z,99374.75
2023-02-19T04:06:22.143Z,99352.78
2023-02-19T04:08:55.813Z,99375.34
2023-02-19T04:11:27.564Z,99341.34
2023-02-19T04:14:06.690Z,99340.16
2023-02-19T04:16:40.900Z,99366.44
2023-02-19T04:19:13.688Z,99375.31
2023-02-19T04:21:46.687Z,99358.47
2023-02-19T04:24:23.861Z,99385.78
2023-02-19T04:26:53.935Z,99357.13
2023-02-19T04:29:23.603Z,99388.09
2023-02-19T04:31:53.120Z,99369.28
2023-02-19T04:34:22.157Z,99374.59
2023-02-19T04:36:52.791Z,99397.63
2023-02-19T04:39:22.010Z,99396.84
2023-02-19T04:41:51.339Z,99396.44
2023-02-19T04:44:20.614Z,99342.69
2023-02-19T04:46:50.766Z,99406.38
2023-02-19T04:49:20.125Z,99397.00
2023-02-19T04:51:49.146Z,99401.81
2023-02-19T04:54:19.767Z,99396.13
2023-02-19T04:56:50.864Z,99411.41
2023-02-19T04:59:20.222Z,99402.53
2023-02-19T05:01:49.474Z,99410.53
2023-02-19T05:04:19.028Z,99425.69
2023-02-19T05:06:48.615Z,99415.16
2023-02-19T05:09:19.537Z,99419.13
2023-02-19T05:11:48.725Z,99403.00
2023-02-19T05:14:18.227Z,99416.84
2023-02-19T05:16:47.362Z,99430.84
2023-02-19T05:19:16.850Z,99426.81
2023-02-19T05:21:46.039Z,99335.28
2023-02-19T05:24:15.310Z,99431.91
2023-02-19T05:26:46.074Z,99395.94
2023-02-19T05:29:15.771Z,99438.69
2023-02-19T05:31:45.045Z,99435.28
2023-02-19T05:34:14.231Z,99440.44
2023-02-19T05:36:43.771Z,99447.88
2023-02-19T05:39:13.623Z,99447.53
2023-02-19T05:41:43.162Z,99434.81
2023-02-19T05:44:13.909Z,99433.31
2023-02-19T05:46:45.968Z,99455.44
2023-02-19T05:49:15.824Z,99431.72
2023-02-19T05:51:46.222Z,99446.09
2023-02-19T05:54:15.364Z,99465.97
2023-02-19T05:56:44.509Z,99433.22
2023-02-19T05:59:19.507Z,99448.56
2023-02-19T06:01:49.767Z,99442.03
2023-02-19T06:04:20.569Z,99442.53
2023-02-19T06:06:50.830Z,99471.63
2023-02-19T06:09:19.866Z,99451.19
2023-02-19T06:11:51.623Z,99469.69
2023-02-19T06:14:22.776Z,99410.28
2023-02-19T06:16:52.277Z,99388.25
2023-02-19T06:19:22.228Z,99472.59
2023-02-19T06:21:51.929Z,99322.53
2023-02-19T06:24:21.577Z,99464.63
2023-02-19T06:26:51.049Z,99468.44
2023-02-19T06:29:20.228Z,99470.94
2023-02-19T06:31:51.204Z,99459.31
2023-02-19T06:34:20.630Z,99459.88
2023-02-19T06:36:50.880Z,99455.63
2023-02-19T06:39:20.117Z,99460.47
2023-02-19T06:41:49.821Z,99483.03
2023-02-19T06:44:19.435Z,99448.22
2023-02-19T06:46:48.950Z,99479.47
2023-02-19T06:49:19.725Z,99429.00
2023-02-19T06:51:49.699Z,99469.06
2023-02-19T06:54:19.157Z,99483.56
2023-02-19T06:56:48.906Z,99443.88
2023-02-19T06:59:18.819Z,99474.94
2023-02-19T07:01:51.181Z,99461.56
2023-02-19T07:04:21.676Z,99472.06
2023-02-19T07:06:53.070Z,99473.16
2023-02-19T07:09:23.649Z,99445.94
2023-02-19T07:11:52.976Z,99469.44
2023-02-19T07:14:22.724Z,99475.06
2023-02-19T07:16:52.738Z,99406.72
2023-02-19T07:19:30.983Z,99474.13
2023-02-19T07:22:00.294Z,99477.53
2023-02-19T07:24:34.098Z,99469.63
2023-02-19T07:27:04.891Z,99435.22
2023-02-19T07:29:34.482Z,99475.19
2023-02-19T07:32:04.256Z,99428.94
2023-02-19T07:34:35.090Z,99473.19
2023-02-19T07:37:05.203Z,99464.88
2023-02-19T07:39:34.781Z,99494.38
2023-02-19T07:42:04.292Z,99454.84
2023-02-19T07:44:35.219Z,99483.81
2023-02-19T07:47:04.557Z,99476.22
2023-02-19T07:49:36.331Z,99486.59
2023-02-19T07:52:06.257Z,99463.09
2023-02-19T07:54:35.824Z,99492.25
2023-02-19T07:57:05.502Z,99497.66
2023-02-19T07:59:36.288Z,99468.69
2023-02-19T08:02:23.011Z,99512.50
2023-02-19T08:04:53.842Z,99523.03
2023-02-19T08:07:23.250Z,99494.28
2023-02-19T08:10:13.135Z,99518.09
2023-02-19T08:13:00.281Z,99413.59
2023-02-19T08:15:30.443Z,99510.25
2023-02-19T08:17:59.742Z,99516.97
2023-02-19T08:20:31.585Z,99468.94
2023-02-19T08:23:01.301Z,99524.66
2023-02-19T08:25:31.327Z,99532.16
2023-02-19T08:28:01.453Z,99520.44
2023-02-19T08:30:32.367Z,99474.22
2023-02-19T08:33:02.716Z,99529.19
2023-02-19T08:35:36.612Z,99532.19
2023-02-19T08:38:07.387Z,99528.00
2023-02-19T08:40:38.829Z,99525.50
2023-02-19T08:43:09.483Z,99523.31
2023-02-19T08:45:39.687Z,99491.13
2023-02-19T08:48:11.310Z,99485.72
2023-02-19T08:50:42.306Z,99487.13
2023-02-19T08:53:11.818Z,99504.88
2023-02-19T08:55:42.201Z,99524.53
2023-02-19T08:58:44.209Z,99513.25
2023-02-19T09:01:16.792Z,99320.88
2023-02-19T09:03:47.961Z,99459.81
2023-02-19T09:06:22.271Z,99521.63
2023-02-19T09:08:52.114Z,99512.16
2023-02-19T09:11:21.938Z,99496.63
2023-02-19T09:13:51.166Z,99507.72
2023-02-19T09:16:20.775Z,99501.56
2023-02-19T09:18:50.621Z,99489.53
2023-02-19T09:21:22.142Z,99503.94
2023-02-19T09:23:51.737Z,99471.97
2023-02-19T09:26:21.289Z,99500.91
2023-02-19T09:28:50.779Z,99492.44
2023-02-19T09:31:20.492Z,99494.28
2023-02-19T09:33:50.228Z,99458.94
2023-02-19T09:36:21.273Z,99508.09
2023-02-19T09:38:50.536Z,99492.56
2023-02-19T09:41:26.711Z,99505.38
2023-02-19T09:43:56.015Z,99503.28
2023-02-19T09:46:31.978Z,99515.59
2023-02-19T09:49:09.936Z,99475.59
2023-02-19T09:51:44.412Z,99472.84
2023-02-19T09:54:24.723Z,99494.59
2023-02-19T09:56:56.315Z,99477.28
2023-02-19T09:59:30.067Z,99491.44
2023-02-19T10:02:04.389Z,99481.50
2023-02-19T10:04:34.216Z,99475.25
2023-02-19T10:07:08.525Z,99487.03
2023-02-19T10:09:38.984Z,99472.78
2023-02-19T10:12:16.800Z,99481.91
2023-02-19T10:14:49.936Z,99456.25
2023-02-19T10:17:24.484Z,99451.44
2023-02-19T10:19:55.508Z,99429.09
2023-02-19T10:22:29.155Z,99445.47
2023-02-19T10:24:59.385Z,99467.75
2023-02-19T10:27:31.587Z,99470.06
2023-02-19T10:30:02.945Z,99380.63
2023-02-19T10:32:35.801Z,99455.06
2023-02-19T10:35:14.334Z,99456.22
2023-02-19T10:37:46.878Z,99425.00
2023-02-19T10:40:19.518Z,99447.94
2023-02-19T10:42:51.135Z,99435.53
2023-02-19T10:45:24.001Z,99414.59
2023-02-19T10:47:54.086Z,99426.03
2023-02-19T10:50:29.284Z,99401.47
2023-02-19T10:53:02.017Z,99410.75
2023-02-19T10:55:36.052Z,99413.63
2023-02-19T10:58:25.928Z,99402.06
2023-02-19T11:01:14.070Z,99331.09
2023-02-19T11:03:43.933Z,99386.09
2023-02-19T11:06:15.625Z,99382.13
2023-02-19T11:08:54.705Z,99354.00
2023-02-19T11:11:34.460Z,99352.94
2023-02-19T11:14:07.360Z,99373.19
2023-02-19T11:16:44.196Z,99378.00
2023-02-19T11:19:38.138Z,99366.59
2023-02-19T11:22:21.305Z,99359.81
2023-02-19T11:24:57.269Z,99329.94
2023-02-19T11:27:28.171Z,99316.25
2023-02-19T11:29:58.332Z,99338.78
2023-02-19T11:32:30.752Z,99348.66
2023-02-19T11:35:17.819Z,99321.72
2023-02-19T11:37:58.837Z,99345.38
2023-02-19T11:40:46.845Z,99338.44
2023-02-19T11:43:32.062Z,99345.47
2023-02-19T11:46:09.634Z,99347.91
2023-02-19T11:48:55.655Z,99344.94
2023-02-19T11:51:37.265Z,99330.69
2023-02-19T11:54:19.572Z,99361.31
2023-02-19T11:56:57.687Z,99348.03
2023-02-19T11:59:34.187Z,99362.75
2023-02-19T12:03:12.325Z,99366.78
2023-02-19T12:05:58.813Z,99386.91
2023-02-19T12:09:08.087Z,99370.75
2023-02-19T12:12:07.139Z,99368.25
2023-02-19T12:14:55.980Z,99374.19
2023-02-19T12:17:46.480Z,99350.34
2023-02-19T12:20:24.162Z,99365.38
2023-02-19T12:23:03.862Z,99275.91
2023-02-19T12:25:46.566Z,99342.09
2023-02-19T12:28:36.172Z,99371.91
2023-02-19T12:31:47.282Z,99363.97
2023-02-19T12:34:34.973Z,99358.00
2023-02-19T12:37:17.330Z,99365.44
2023-02-19T12:39:57.514Z,99358.91
2023-02-19T12:42:50.795Z,99357.22
2023-02-19T12:45:25.382Z,99365.56
2023-02-19T12:48:02.848Z,99371.53
2023-02-19T12:50:36.767Z,99356.31
2023-02-19T12:53:07.966Z,99365.34
2023-02-19T12:55:41.922Z,99316.50
2023-02-19T12:58:18.580Z,99340.41
2023-02-19T13:00:56.684Z,99358.13
2023-02-19T13:03:33.254Z,99360.56
2023-02-19T13:06:09.458Z,99370.94
2023-02-19T13:08:57.730Z,99366.19
2023-02-19T13:11:39.957Z,99378.28
2023-02-19T13:14:18.619Z,99351.41
2023-02-19T13:16:53.919Z,99381.38
2023-02-19T13:19:23.242Z,99366.13
2023-02-19T13:22:20.830Z,99364.16
2023-02-19T13:24:52.216Z,99322.72
2023-02-19T13:27:48.763Z,99356.09
2023-02-19T13:30:34.079Z,99364.66
2023-02-19T13:33:23.919Z,99366.50
2023-02-19T13:36:06.291Z,99315.31
2023-02-19T13:38:41.957Z,99363.16
2023-02-19T13:41:21.527Z,99347.16
2023-02-19T13:43:57.974Z,99327.41
2023-02-19T13:46:36.607Z,99333.75
2023-02-19T13:49:42.780Z,99357.66
2023-02-19T13:52:43.730Z,99360.09
2023-02-19T13:55:54.917Z,99358.59
2023-02-19T13:58:39.108Z,99359.03
2023-02-19T14:01:10.481Z,99349.63
2023-02-19T14:03:52.390Z,99339.75
2023-02-19T14:06:23.405Z,99365.81
2023-02-19T14:08:56.996Z,99340.06
2023-02-19T14:12:19.165Z,99353.91
2023-02-19T14:14:50.511Z,99341.56
2023-02-19T14:17:38.592Z,99363.63
2023-02-19T14:20:43.149Z,99329.94
2023-02-19T14:23:25.495Z,99349.44
2023-02-19T14:25:58.417Z,99344.09
2023-02-19T14:28:33.650Z,99346.38
2023-02-19T14:31:11.869Z,99319.25
2023-02-19T14:33:47.433Z,99377.50
2023-02-19T14:36:24.723Z,99351.88
2023-02-19T14:38:58.108Z,99371.47
2023-02-19T14:41:31.809Z,99346.38
2023-02-19T14:44:02.514Z,99367.69
2023-02-19T14:46:36.097Z,99324.16
2023-02-19T14:49:13.574Z,99363.81
2023-02-19T14:51:47.661Z,99346.25
2023-02-19T14:54:22.408Z,99367.50
2023-02-19T14:56:55.556Z,99364.75
2023-02-19T14:59:27.924Z,99321.03
2023-02-19T15:02:02.790Z,99374.00
2023-02-19T15:04:38.033Z,99375.00
2023-02-19T15:07:09.901Z,99365.50
2023-02-19T15:09:47.284Z,99346.19
2023-02-19T15:12:19.905Z,99214.56
2023-02-19T15:14:56.644Z,99169.41
2023-02-19T15:17:30.722Z,99385.44
2023-02-19T15:20:05.262Z,99378.47
2023-02-19T15:22:35.662Z,99370.31
2023-02-19T15:25:07.607Z,99372.13
2023-02-19T15:27:37.843Z,99399.00
2023-02-19T15:30:21.661Z,99380.00
2023-02-19T15:32:55.215Z,99400.84
2023-02-19T15:35:26.535Z,99412.59
2023-02-19T15:37:58.085Z,99403.44
2023-02-19T15:40:32.743Z,99407.47
2023-02-19T15:43:02.291Z,99406.16
2023-02-19T15:45:40.478Z,99371.78
2023-02-19T15:48:15.829Z,99378.13
2023-02-19T15:50:50.035Z,99409.00
2023-02-19T15:53:21.236Z,99415.09
2023-02-19T15:56:01.633Z,99417.22
2023-02-19T15:58:36.823Z,99380.13
2023-02-19T16:01:13.655Z,99397.56
2023-02-19T16:03:45.938Z,99398.75
2023-02-19T16:06:19.132Z,99399.88
2023-02-19T16:09:03.484Z,99413.38
2023-02-19T16:11:39.727Z,99063.16
2023-02-19T16:14:30.548Z,99198.81
2023-02-19T16:17:18.594Z,99330.81
2023-02-19T16:19:57.675Z,99158.69
2023-02-19T16:22:30.469Z,99424.00
2023-02-19T16:25:03.365Z,99424.41
2023-02-19T16:27:40.268Z,99430.75
2023-02-19T16:30:29.840Z,99420.38
2023-02-19T16:33:33.148Z,99430.97
2023-02-19T16:36:20.821Z,99434.34
2023-02-19T16:39:21.575Z,99423.25
2023-02-19T16:42:18.416Z,99428.88
2023-02-19T16:44:51.591Z,99424.84
2023-02-19T16:47:33.570Z,99432.47
2023-02-19T16:50:13.684Z,99326.38
2023-02-19T16:53:01.301Z,99433.72
2023-02-19T16:55:34.875Z,99212.97
2023-02-19T16:58:04.900Z,99375.78
2023-02-19T17:00:38.917Z,99422.50
2023-02-19T17:03:12.448Z,99374.03
2023-02-19T17:05:43.578Z,99275.59
2023-02-19T17:08:34.949Z,99383.16
2023-02-19T17:11:07.411Z,99404.22
2023-02-19T17:13:37.630Z,99400.63
2023-02-19T17:16:09.055Z,99399.22
2023-02-19T17:18:39.699Z,99422.03
2023-02-19T17:21:17.107Z,99403.56
2023-02-19T17:23:48.328Z,99427.31
2023-02-19T17:26:20.166Z,99419.72
2023-02-19T17:28:51.916Z,99354.56
2023-02-19T17:31:23.672Z,99424.84
2023-02-19T17:36:26.769Z,99411.31
2023-02-19T17:38:57.136Z,99423.81
2023-02-19T17:41:27.143Z,99387.22
2023-02-19T17:44:02.179Z,99430.13
2023-02-19T17:46:35.842Z,99425.06
2023-02-19T17:49:05.642Z,99447.03
2023-02-19T17:51:35.396Z,99425.47
2023-02-19T17:54:04.927Z,99434.97
2023-02-19T17:56:36.375Z,99399.84
2023-02-19T17:59:06.004Z,99453.56
2023-02-19T18:01:38.080Z,99434.16
2023-02-19T18:04:07.593Z,99408.09
2023-02-19T18:06:36.956Z,99457.41
2023-02-19T18:09:06.224Z,99456.09
2023-02-19T18:11:37.328Z,99456.53
2023-02-19T18:14:09.410Z,99481.50
2023-02-19T18:16:48.175Z,99479.78
2023-02-19T18:19:33.538Z,99490.13
2023-02-19T18:22:05.245Z,99410.50
2023-02-19T18:24:36.166Z,99488.06
2023-02-19T18:27:06.115Z,99489.44
2023-02-19T18:29:36.216Z,99491.94
2023-02-19T18:32:07.226Z,99444.81
2023-02-19T18:34:37.350Z,99468.03
2023-02-19T18:37:06.890Z,99459.97
2023-02-19T18:39:37.344Z,99493.53
2023-02-19T18:42:07.487Z,99447.53
2023-02-19T18:44:37.360Z,99492.50
2023-02-19T18:47:11.488Z,99385.03
2023-02-19T18:49:41.572Z,99469.72
2023-02-19T18:52:12.768Z,99465.31
2023-02-19T18:54:43.807Z,99478.22
2023-02-19T18:57:13.792Z,99467.47
2023-02-19T18:59:44.384Z,99493.06
2023-02-19T19:02:15.783Z,99476.00
2023-02-19T19:04:50.909Z,99443.19
2023-02-19T19:07:21.389Z,99471.03
2023-02-19T19:09:51.441Z,99492.88
2023-02-19T19:12:52.906Z,99484.78
2023-02-19T19:15:24.873Z,99501.91
2023-02-19T19:18:14.820Z,99481.56
2023-02-19T19:20:48.172Z,99502.56
2023-02-19T19:23:20.766Z,99475.00
2023-02-19T19:25:51.223Z,99533.63
2023-02-19T19:28:21.281Z,99517.16
2023-02-19T19:30:51.846Z,99547.38
2023-02-19T19:33:23.061Z,99531.50
2023-02-19T19:35:54.593Z,99546.19
2023-02-19T19:38:24.328Z,99518.66
2023-02-19T19:40:54.529Z,99528.66
2023-02-19T19:43:27.568Z,99569.59
2023-02-19T19:46:00.233Z,99532.53
2023-02-19T19:48:31.739Z,99538.94
2023-02-19T19:51:12.587Z,99544.03
2023-02-19T19:53:47.736Z,99566.16
2023-02-19T19:56:19.035Z,99568.13
2023-02-19T19:58:50.151Z,99574.34
2023-02-19T20:01:21.631Z,99571.78
2023-02-19T20:03:52.790Z,99577.19
2023-02-19T20:06:27.886Z,99586.94
2023-02-19T20:08:58.091Z,99585.41
2023-02-19T20:11:28.470Z,99590.88
2023-02-19T20:13:58.317Z,99556.75
2023-02-19T20:16:29.289Z,99565.91
2023-02-19T20:19:02.676Z,99543.88
2023-02-19T20:21:32.957Z,99587.50
2023-02-19T20:24:04.421Z,99585.13
2023-02-19T20:26:37.081Z,99581.88
2023-02-19T20:29:11.523Z,99585.28
2023-02-19T20:31:50.273Z,99587.81
2023-02-19T20:34:23.930Z,99596.47
2023-02-19T20:36:53.433Z,99608.84
2023-02-19T20:39:29.004Z,99597.84
2023-02-19T20:42:00.848Z,99621.97
2023-02-19T20:44:30.986Z,99626.34
2023-02-19T20:47:04.162Z,99601.41
2023-02-19T20:49:35.589Z,99626.97
2023-02-19T20:52:08.292Z,99621.09
2023-02-19T20:54:38.754Z,99619.63
2023-02-19T20:57:11.352Z,99626.53
2023-02-19T20:59:41.767Z,99639.94
2023-02-19T21:02:18.067Z,99604.44
2023-02-19T21:04:49.215Z,99645.00
2023-02-19T21:07:18.736Z,99652.59
2023-02-19T21:09:47.936Z,99649.25
2023-02-19T21:12:17.286Z,99639.56
2023-02-19T21:14:46.521Z,99651.78
2023-02-19T21:17:16.420Z,99596.47
2023-02-19T21:19:46.076Z,99639.72
2023-02-19T21:22:16.717Z,99651.63
2023-02-19T21:24:49.615Z,99652.91
2023-02-19T21:27:19.064Z,99646.91
2023-02-19T21:29:49.036Z,99617.38
2023-02-19T21:32:18.368Z,99629.63
2023-02-19T21:34:48.023Z,99635.31
2023-02-19T21:37:19.963Z,99668.19
2023-02-19T21:39:49.336Z,99672.38
2023-02-19T21:42:18.799Z,99656.34
2023-02-19T21:44:48.610Z,99635.94
2023-02-19T21:47:18.300Z,99676.94
2023-02-19T21:49:47.990Z,99648.94
2023-02-19T21:52:18.840Z,99676.81
2023-02-19T21:54:49.263Z,99674.56
2023-02-19T21:57:18.698Z,99683.38
2023-02-19T21:59:47.999Z,99678.66
2023-02-19T22:02:19.914Z,99667.31
2023-02-19T22:04:54.652Z,99661.50
2023-02-19T22:07:26.309Z,99636.25
2023-02-19T22:09:55.951Z,99692.22
2023-02-19T22:12:25.461Z,99697.59
2023-02-19T22:14:55.088Z,99689.78
2023-02-19T22:17:24.363Z,99696.38
2023-02-19T22:19:53.772Z,99672.25
2023-02-19T22:22:24.385Z,99676.28
2023-02-19T22:24:53.979Z,99692.97
2023-02-19T22:27:24.659Z,99690.19
2023-02-19T22:29:54.185Z,99704.72
2023-02-19T22:32:23.793Z,99697.16
2023-02-19T22:34:53.496Z,99682.31
2023-02-19T22:37:24.265Z,99675.03
2023-02-19T22:39:54.119Z,99700.94
2023-02-19T22:42:24.272Z,99684.66
2023-02-19T22:44:53.763Z,99706.25
2023-02-19T22:47:23.107Z,99703.13
2023-02-19T22:49:52.639Z,99705.94
2023-02-19T22:52:21.786Z,99713.19
2023-02-19T22:54:53.715Z,99717.75
2023-02-19T22:57:22.803Z,99702.81
2023-02-19T22:59:52.395Z,99702.59
2023-02-19T23:02:22.119Z,99704.06
2023-02-19T23:04:51.714Z,99711.50
2023-02-19T23:07:21.260Z,99694.19
2023-02-19T23:09:53.535Z,99711.63
2023-02-19T23:12:23.349Z,99699.72
2023-02-19T23:14:52.538Z,99720.59
2023-02-19T23:17:22.306Z,99711.34
2023-02-19T23:19:51.528Z,99715.63
2023-02-19T23:22:21.015Z,99703.34
2023-02-19T23:24:50.382Z,99713.00
2023-02-19T23:27:21.246Z,99728.94
2023-02-19T23:29:51.134Z,99710.38
2023-02-19T23:32:21.203Z,99699.72
2023-02-19T23:34:50.955Z,99696.25
2023-02-19T23:37:20.557Z,99728.28
2023-02-19T23:39:50.434Z,99718.69
2023-02-19T23:42:21.210Z,99713.84
2023-02-19T23:44:50.807Z,99730.44
2023-02-19T23:47:20.217Z,99706.75
2023-02-19T23:49:49.510Z,99721.50
2023-02-19T23:52:19.335Z,99704.47
2023-02-19T23:54:49.091Z,99729.06
2023-02-19T23:57:18.679Z,99682.50
2023-02-19T23:59:50.003Z,99730.56
